createdAt,value
2017-09-06T00:01:01.464Z,131.93
2017-09-06T00:03:31.018Z,129.63
2017-09-06T00:06:00.299Z,135.97
2017-09-06T00:08:29.611Z,132.10
2017-09-06T00:10:59.414Z,133.83
2017-09-06T00:13:28.641Z,133.87
2017-09-06T00:15:57.906Z,133.30
2017-09-06T00:18:27.236Z,132.33
2017-09-06T00:20:57.599Z,136.03
2017-09-06T00:23:27.449Z,132.17
2017-09-06T00:25:58.295Z,139.17
2017-09-06T00:28:27.746Z,142.57
2017-09-06T00:30:57.914Z,142.87
2017-09-06T00:33:27.523Z,138.83
2017-09-06T00:35:56.956Z,136.10
2017-09-06T00:38:29.505Z,134.30
2017-09-06T00:40:59.069Z,137.83
2017-09-06T00:43:28.323Z,136.73
2017-09-06T00:45:58.623Z,137.20
2017-09-06T00:48:28.577Z,137.60
2017-09-06T00:50:59.413Z,140.53
2017-09-06T00:53:29.162Z,130.70
2017-09-06T00:55:58.457Z,133.23
2017-09-06T00:58:28.360Z,140.50
2017-09-06T01:00:58.430Z,136.60
2017-09-06T01:03:27.985Z,138.53
2017-09-06T01:05:57.551Z,142.60
2017-09-06T01:08:28.058Z,133.03
2017-09-06T01:10:58.272Z,131.27
2017-09-06T01:13:27.650Z,134.07
2017-09-06T01:15:58.423Z,135.57
2017-09-06T01:18:29.369Z,132.33
2017-09-06T01:21:00.943Z,136.93
2017-09-06T01:23:30.362Z,133.60
2017-09-06T01:26:00.099Z,144.50
2017-09-06T01:28:30.600Z,133.80
2017-09-06T01:31:01.115Z,132.07
2017-09-06T01:33:30.592Z,131.97
2017-09-06T01:35:59.905Z,131.50
2017-09-06T01:38:30.722Z,135.10
2017-09-06T01:41:00.047Z,129.90
2017-09-06T01:43:29.990Z,138.43
2017-09-06T01:46:01.230Z,127.77
2017-09-06T01:48:31.728Z,132.00
2017-09-06T01:51:01.087Z,133.63
2017-09-06T01:53:30.605Z,137.83
2017-09-06T01:56:00.067Z,131.40
2017-09-06T01:58:29.401Z,135.33
2017-09-06T02:00:58.852Z,135.47
2017-09-06T02:03:29.103Z,134.63
2017-09-06T02:05:59.396Z,132.37
2017-09-06T02:08:29.398Z,131.00
2017-09-06T02:10:58.700Z,131.97
2017-09-06T02:13:28.108Z,129.27
2017-09-06T02:15:57.363Z,130.80
2017-09-06T02:18:27.626Z,136.50
2017-09-06T02:22:26.416Z,122.00
2017-09-06T02:24:56.864Z,114.27
2017-09-06T02:27:27.127Z,100.17
2017-09-06T02:29:57.850Z,97.10
2017-09-06T02:32:27.109Z,92.63
2017-09-06T02:34:57.700Z,87.40
2017-09-06T02:37:28.352Z,86.00
2017-09-06T02:39:57.992Z,85.30
2017-09-06T02:42:27.536Z,81.17
2017-09-06T02:44:57.240Z,81.87
2017-09-06T02:47:28.004Z,83.43
2017-09-06T02:49:58.651Z,82.43
2017-09-06T02:52:28.674Z,83.43
2017-09-06T02:54:58.050Z,81.00
2017-09-06T02:57:28.378Z,80.07
2017-09-06T02:59:57.929Z,83.47
2017-09-06T03:02:27.646Z,77.90
2017-09-06T03:04:57.852Z,78.77
2017-09-06T03:07:28.266Z,73.63
2017-09-06T03:09:57.771Z,66.83
2017-09-06T03:12:27.497Z,64.10
2017-09-06T03:14:57.202Z,63.77
2017-09-06T03:17:27.569Z,61.40
2017-09-06T03:19:57.919Z,60.90
2017-09-06T03:22:28.779Z,59.50
2017-09-06T03:24:58.391Z,58.60
2017-09-06T03:27:27.875Z,59.33
2017-09-06T03:29:57.420Z,57.77
2017-09-06T03:32:27.195Z,60.27
2017-09-06T03:34:56.500Z,60.77
2017-09-06T03:37:25.974Z,63.23
2017-09-06T03:39:55.557Z,61.93
2017-09-06T03:42:25.026Z,58.87
2017-09-06T03:44:54.831Z,59.63
2017-09-06T03:47:23.909Z,58.40
2017-09-06T03:49:53.408Z,58.40
2017-09-06T03:52:22.896Z,56.33
2017-09-06T03:54:52.790Z,55.87
2017-09-06T03:57:22.407Z,55.03
2017-09-06T03:59:51.685Z,55.90
2017-09-06T04:02:21.204Z,57.33
2017-09-06T04:04:50.824Z,54.80
2017-09-06T04:07:20.266Z,54.73
2017-09-06T04:09:49.722Z,53.97
2017-09-06T04:12:19.140Z,52.70
2017-09-06T04:14:48.622Z,53.70
2017-09-06T04:17:18.422Z,55.73
2017-09-06T04:19:48.555Z,49.93
2017-09-06T04:22:17.781Z,53.90
2017-09-06T04:24:48.252Z,50.87
2017-09-06T04:27:16.998Z,53.70
2017-09-06T04:29:46.409Z,51.77
2017-09-06T04:32:15.994Z,52.83
2017-09-06T04:34:45.457Z,53.43
2017-09-06T04:37:15.049Z,51.67
2017-09-06T04:39:43.870Z,49.43
2017-09-06T04:42:12.602Z,52.90
2017-09-06T04:44:41.330Z,51.07
2017-09-06T04:47:10.815Z,53.43
2017-09-06T04:49:40.101Z,52.23
2017-09-06T04:52:09.225Z,57.50
2017-09-06T04:54:38.971Z,61.40
2017-09-06T04:57:08.306Z,56.37
2017-09-06T04:59:37.588Z,54.47
2017-09-06T05:02:06.450Z,52.30
2017-09-06T05:04:35.178Z,54.77
2017-09-06T05:07:03.905Z,51.37
2017-09-06T05:09:32.691Z,52.00
2017-09-06T05:12:01.966Z,51.33
2017-09-06T05:14:31.302Z,52.57
2017-09-06T05:17:00.600Z,52.40
2017-09-06T05:19:29.926Z,52.00
2017-09-06T05:21:59.133Z,53.83
2017-09-06T05:24:28.589Z,52.23
2017-09-06T05:26:58.530Z,52.77
2017-09-06T05:29:27.227Z,53.50
2017-09-06T05:31:56.908Z,52.33
2017-09-06T05:34:26.129Z,53.50
2017-09-06T05:36:55.284Z,54.03
2017-09-06T05:39:24.756Z,51.20
2017-09-06T05:41:53.821Z,50.03
2017-09-06T05:44:23.089Z,55.27
2017-09-06T05:46:52.294Z,52.50
2017-09-06T05:49:21.093Z,53.73
2017-09-06T05:51:49.777Z,53.20
2017-09-06T05:54:18.527Z,56.20
2017-09-06T05:56:47.814Z,55.23
2017-09-06T05:59:17.202Z,60.90
2017-09-06T06:01:46.358Z,59.10
2017-09-06T06:04:15.564Z,66.63
2017-09-06T06:06:45.104Z,71.87
2017-09-06T06:09:14.272Z,73.40
2017-09-06T06:11:43.562Z,78.80
2017-09-06T06:14:12.244Z,80.30
2017-09-06T06:16:41.043Z,80.00
2017-09-06T06:19:10.447Z,75.80
2017-09-06T06:21:39.560Z,88.00
2017-09-06T06:24:09.957Z,84.60
2017-09-06T06:26:41.331Z,86.90
2017-09-06T06:29:12.176Z,85.63
2017-09-06T06:31:41.376Z,88.37
2017-09-06T06:34:10.704Z,89.03
2017-09-06T06:36:39.415Z,85.87
2017-09-06T06:39:08.175Z,84.73
2017-09-06T06:41:37.183Z,85.43
2017-09-06T06:44:06.289Z,79.17
2017-09-06T06:46:36.823Z,83.90
2017-09-06T06:49:06.154Z,79.23
2017-09-06T06:51:35.318Z,78.77
2017-09-06T06:54:04.603Z,80.87
2017-09-06T06:56:33.655Z,81.13
2017-09-06T06:59:03.009Z,80.67
2017-09-06T07:01:32.422Z,80.07
2017-09-06T07:04:01.801Z,79.40
2017-09-06T07:06:30.902Z,76.43
2017-09-06T07:09:00.303Z,78.07
2017-09-06T07:11:29.709Z,77.37
2017-09-06T07:13:59.003Z,72.53
2017-09-06T07:16:28.329Z,74.40
2017-09-06T07:18:57.506Z,76.03
2017-09-06T07:21:26.662Z,74.60
2017-09-06T07:23:56.046Z,71.27
2017-09-06T07:26:25.442Z,70.73
2017-09-06T07:28:54.769Z,72.57
2017-09-06T07:31:24.895Z,68.37
2017-09-06T07:33:54.196Z,63.57
2017-09-06T07:36:23.509Z,61.73
2017-09-06T07:38:52.805Z,58.13
2017-09-06T07:41:22.288Z,60.37
2017-09-06T07:43:51.538Z,57.17
2017-09-06T07:46:20.726Z,57.60
2017-09-06T07:48:50.058Z,54.47
2017-09-06T07:51:19.306Z,55.83
2017-09-06T07:53:48.684Z,57.13
2017-09-06T07:56:18.059Z,54.50
2017-09-06T07:58:47.139Z,57.40
2017-09-06T08:01:16.537Z,58.93
2017-09-06T08:03:45.781Z,56.03
2017-09-06T08:06:15.028Z,61.30
2017-09-06T08:08:44.559Z,58.70
2017-09-06T08:11:14.636Z,63.83
2017-09-06T08:13:44.133Z,59.17
2017-09-06T08:16:13.546Z,60.70
2017-09-06T08:18:42.817Z,61.70
2017-09-06T08:21:12.034Z,63.33
2017-09-06T08:23:41.566Z,63.10
2017-09-06T08:26:10.643Z,59.20
2017-09-06T08:28:39.804Z,63.17
2017-09-06T08:31:09.115Z,68.40
2017-09-06T08:33:39.142Z,71.67
2017-09-06T08:36:08.527Z,71.87
2017-09-06T08:38:37.813Z,75.37
2017-09-06T08:41:07.241Z,75.10
2017-09-06T08:43:36.521Z,75.30
2017-09-06T08:46:05.997Z,79.93
2017-09-06T08:48:35.259Z,77.50
2017-09-06T08:51:04.602Z,75.70
2017-09-06T08:53:34.010Z,76.33
2017-09-06T08:56:03.228Z,77.00
2017-09-06T08:58:33.102Z,74.30
2017-09-06T09:01:02.368Z,78.27
2017-09-06T09:03:31.745Z,81.10
2017-09-06T09:06:01.371Z,80.63
2017-09-06T09:08:30.740Z,76.73
2017-09-06T09:11:00.058Z,77.87
2017-09-06T09:13:29.636Z,78.40
2017-09-06T09:15:58.912Z,81.70
2017-09-06T09:18:28.544Z,81.00
2017-09-06T09:20:57.946Z,79.00
2017-09-06T09:23:27.375Z,78.50
2017-09-06T09:25:56.918Z,73.83
2017-09-06T09:28:26.529Z,74.83
2017-09-06T09:30:55.763Z,77.80
2017-09-06T09:33:24.955Z,78.73
2017-09-06T09:35:54.849Z,79.13
2017-09-06T09:38:24.060Z,80.47
2017-09-06T09:40:53.344Z,76.37
2017-09-06T09:43:22.756Z,80.43
2017-09-06T09:45:52.124Z,80.00
2017-09-06T09:48:21.245Z,80.37
2017-09-06T09:50:50.536Z,81.80
2017-09-06T09:53:19.768Z,79.60
2017-09-06T09:55:48.836Z,81.23
2017-09-06T09:58:18.177Z,83.63
2017-09-06T10:00:47.205Z,79.43
2017-09-06T10:03:16.607Z,86.33
2017-09-06T10:05:45.706Z,80.37
2017-09-06T10:08:15.236Z,82.47
2017-09-06T10:10:44.441Z,78.57
2017-09-06T10:13:13.758Z,79.80
2017-09-06T10:15:43.147Z,77.07
2017-09-06T10:18:12.463Z,74.47
2017-09-06T10:20:41.910Z,76.13
2017-09-06T10:23:11.146Z,74.37
2017-09-06T10:25:41.274Z,77.77
2017-09-06T10:28:10.478Z,73.07
2017-09-06T10:30:39.618Z,75.00
2017-09-06T10:33:08.984Z,71.60
2017-09-06T10:35:38.272Z,74.27
2017-09-06T10:38:08.668Z,72.30
2017-09-06T10:40:37.783Z,70.30
2017-09-06T10:43:07.064Z,66.70
2017-09-06T10:45:36.575Z,66.90
2017-09-06T10:48:05.881Z,69.63
2017-09-06T10:50:35.149Z,68.73
2017-09-06T10:53:04.269Z,68.50
2017-09-06T10:55:33.659Z,65.40
2017-09-06T10:58:02.963Z,66.23
2017-09-06T11:00:32.213Z,67.37
2017-09-06T11:03:01.684Z,68.10
2017-09-06T11:05:30.888Z,66.07
2017-09-06T11:08:00.097Z,69.13
2017-09-06T11:10:29.554Z,65.53
2017-09-06T11:12:58.910Z,64.30
2017-09-06T11:15:28.123Z,63.00
2017-09-06T11:17:57.583Z,69.70
2017-09-06T11:20:27.058Z,68.13
2017-09-06T11:22:56.506Z,68.30
2017-09-06T11:25:25.988Z,68.13
2017-09-06T11:27:55.159Z,68.53
2017-09-06T11:30:24.626Z,67.43
2017-09-06T11:32:53.963Z,67.00
2017-09-06T11:35:23.299Z,74.20
2017-09-06T11:37:52.637Z,70.03
2017-09-06T11:40:22.313Z,68.20
2017-09-06T11:42:51.585Z,70.60
2017-09-06T11:45:21.022Z,72.03
2017-09-06T11:47:50.206Z,70.17
2017-09-06T11:50:19.433Z,74.33
2017-09-06T11:52:48.814Z,71.27
2017-09-06T11:55:18.318Z,72.70
2017-09-06T11:57:47.873Z,70.37
2017-09-06T12:00:17.038Z,75.50
2017-09-06T12:02:46.408Z,77.30
2017-09-06T12:05:15.641Z,72.57
2017-09-06T12:07:44.928Z,71.90
2017-09-06T12:10:14.425Z,71.67
2017-09-06T12:12:43.908Z,73.53
2017-09-06T12:15:13.231Z,73.00
2017-09-06T12:17:42.419Z,71.47
2017-09-06T12:20:11.648Z,73.13
2017-09-06T12:22:41.143Z,76.70
2017-09-06T12:25:10.193Z,75.53
2017-09-06T12:27:39.238Z,72.80
2017-09-06T12:30:08.764Z,79.83
2017-09-06T12:32:38.120Z,77.73
2017-09-06T12:35:07.319Z,78.50
2017-09-06T12:37:36.744Z,76.47
2017-09-06T12:40:06.121Z,78.10
2017-09-06T12:42:35.482Z,74.57
2017-09-06T12:45:04.782Z,81.00
2017-09-06T12:47:34.205Z,77.93
2017-09-06T12:50:03.373Z,77.73
2017-09-06T12:52:32.726Z,77.47
2017-09-06T12:55:01.973Z,73.70
2017-09-06T12:57:31.167Z,71.40
2017-09-06T13:00:00.239Z,76.40
2017-09-06T13:02:29.639Z,71.83
2017-09-06T13:04:58.886Z,74.23
2017-09-06T13:07:28.186Z,67.50
2017-09-06T13:09:57.495Z,73.40
2017-09-06T13:12:26.729Z,73.63
2017-09-06T13:14:56.262Z,74.00
2017-09-06T13:17:25.512Z,72.63
2017-09-06T13:19:54.794Z,72.53
2017-09-06T13:22:23.886Z,74.23
2017-09-06T13:24:53.373Z,72.10
2017-09-06T13:27:22.573Z,75.33
2017-09-06T13:29:51.807Z,82.47
2017-09-06T13:32:21.245Z,74.57
2017-09-06T13:34:51.248Z,72.53
2017-09-06T13:37:20.735Z,82.10
2017-09-06T13:39:50.103Z,80.70
2017-09-06T13:42:19.247Z,78.67
2017-09-06T13:44:48.843Z,78.87
2017-09-06T13:47:18.105Z,78.53
2017-09-06T13:49:47.421Z,76.70
2017-09-06T13:52:16.809Z,76.47
2017-09-06T13:54:46.433Z,74.47
2017-09-06T13:57:15.728Z,73.30
2017-09-06T13:59:45.134Z,75.13
2017-09-06T14:02:14.416Z,79.03
2017-09-06T14:04:43.724Z,81.60
2017-09-06T14:07:12.954Z,77.90
2017-09-06T14:09:42.162Z,84.83
2017-09-06T14:12:11.295Z,78.93
2017-09-06T14:14:40.727Z,75.00
2017-09-06T14:17:09.875Z,81.10
2017-09-06T14:19:39.077Z,77.17
2017-09-06T14:22:08.569Z,77.37
2017-09-06T14:24:37.703Z,77.80
2017-09-06T14:27:07.083Z,69.30
2017-09-06T14:29:36.396Z,72.47
2017-09-06T14:32:05.765Z,77.20
2017-09-06T14:34:35.022Z,72.73
2017-09-06T14:37:04.779Z,72.03
2017-09-06T14:39:33.967Z,68.43
2017-09-06T14:42:03.198Z,69.00
2017-09-06T14:44:32.425Z,72.67
2017-09-06T14:47:01.761Z,70.83
2017-09-06T14:49:31.102Z,72.10
2017-09-06T14:52:00.286Z,71.87
2017-09-06T14:54:29.520Z,69.13
2017-09-06T14:56:58.675Z,76.23
2017-09-06T14:59:28.145Z,68.87
2017-09-06T15:01:57.665Z,71.40
2017-09-06T15:04:26.976Z,68.00
2017-09-06T15:06:55.792Z,73.30
2017-09-06T15:09:24.515Z,68.17
2017-09-06T15:11:53.209Z,78.60
2017-09-06T15:14:21.916Z,75.77
2017-09-06T15:16:50.641Z,76.33
2017-09-06T15:19:19.355Z,70.93
2017-09-06T15:21:48.650Z,74.00
2017-09-06T15:24:17.867Z,75.90
2017-09-06T15:26:47.037Z,75.57
2017-09-06T15:29:16.357Z,78.13
2017-09-06T15:31:45.563Z,73.30
2017-09-06T15:34:14.724Z,72.13
2017-09-06T15:36:44.346Z,71.27
2017-09-06T15:39:14.667Z,74.30
2017-09-06T15:41:44.579Z,73.10
2017-09-06T15:44:13.810Z,76.87
2017-09-06T15:46:42.986Z,77.40
2017-09-06T15:49:12.371Z,76.93
2017-09-06T15:51:41.782Z,70.03
2017-09-06T15:54:10.951Z,71.17
2017-09-06T15:56:40.081Z,71.33
2017-09-06T15:59:09.212Z,75.57
2017-09-06T16:01:38.533Z,78.13
2017-09-06T16:04:07.955Z,74.70
2017-09-06T16:06:37.049Z,76.30
2017-09-06T16:09:06.412Z,71.43
2017-09-06T16:11:35.852Z,79.33
2017-09-06T16:14:04.930Z,74.03
2017-09-06T16:16:34.037Z,75.40
2017-09-06T16:19:03.613Z,72.90
2017-09-06T16:21:33.225Z,77.87
2017-09-06T16:24:02.801Z,76.30
2017-09-06T16:26:32.131Z,74.43
2017-09-06T16:29:01.512Z,77.83
2017-09-06T16:31:30.994Z,76.97
2017-09-06T16:34:00.535Z,75.20
2017-09-06T16:36:29.876Z,72.10
2017-09-06T16:38:59.213Z,76.67
2017-09-06T16:41:29.566Z,74.83
2017-09-06T16:43:59.034Z,74.47
2017-09-06T16:46:28.435Z,74.87
2017-09-06T16:48:57.777Z,76.93
2017-09-06T16:51:27.039Z,76.53
2017-09-06T16:53:56.233Z,75.17
2017-09-06T16:56:25.545Z,74.53
2017-09-06T16:58:54.504Z,70.50
2017-09-06T17:01:23.611Z,73.50
2017-09-06T17:03:53.202Z,73.40
2017-09-06T17:06:22.596Z,71.07
2017-09-06T17:08:51.718Z,77.50
2017-09-06T17:11:22.486Z,69.63
2017-09-06T17:13:51.556Z,75.00
2017-09-06T17:16:20.828Z,73.50
2017-09-06T17:18:50.193Z,72.80
2017-09-06T17:21:19.669Z,76.40
2017-09-06T17:23:49.037Z,72.13
2017-09-06T17:26:18.173Z,69.23
2017-09-06T17:28:47.525Z,73.20
2017-09-06T17:31:16.969Z,72.73
2017-09-06T17:33:46.541Z,72.27
2017-09-06T17:36:15.261Z,72.20
2017-09-06T17:38:45.925Z,71.80
2017-09-06T17:41:15.407Z,74.30
2017-09-06T17:43:45.525Z,70.77
2017-09-06T17:46:15.195Z,71.67
2017-09-06T17:48:44.539Z,74.20
2017-09-06T17:51:14.077Z,71.80
2017-09-06T17:53:44.520Z,73.57
2017-09-06T17:56:13.814Z,70.40
2017-09-06T17:58:43.212Z,67.30
2017-09-06T18:01:12.498Z,69.37
2017-09-06T18:03:41.773Z,70.40
2017-09-06T18:06:11.075Z,70.73
2017-09-06T18:08:40.243Z,69.93
2017-09-06T18:11:09.634Z,70.57
2017-09-06T18:13:38.754Z,68.83
2017-09-06T18:16:08.065Z,74.90
2017-09-06T18:18:37.377Z,72.70
2017-09-06T18:21:06.938Z,69.63
2017-09-06T18:23:36.347Z,74.53
2017-09-06T18:26:06.509Z,67.80
2017-09-06T18:28:35.912Z,71.70
2017-09-06T18:31:05.089Z,68.17
2017-09-06T18:33:34.450Z,66.83
2017-09-06T18:36:03.630Z,66.53
2017-09-06T18:38:33.178Z,67.27
2017-09-06T18:41:02.356Z,67.07
2017-09-06T18:43:31.775Z,66.37
2017-09-06T18:46:01.899Z,66.37
2017-09-06T18:48:31.404Z,62.23
2017-09-06T18:51:00.676Z,60.50
2017-09-06T18:53:29.894Z,61.60
2017-09-06T18:55:59.103Z,63.10
2017-09-06T18:58:29.205Z,63.97
2017-09-06T19:00:58.536Z,63.40
2017-09-06T19:03:27.277Z,62.03
2017-09-06T19:05:56.008Z,71.13
2017-09-06T19:08:24.659Z,76.93
2017-09-06T19:10:53.391Z,78.10
2017-09-06T19:13:22.854Z,90.20
2017-09-06T19:15:52.181Z,86.43
2017-09-06T19:18:21.806Z,81.10
2017-09-06T19:20:50.978Z,84.83
2017-09-06T19:23:20.071Z,88.03
2017-09-06T19:25:49.514Z,90.67
2017-09-06T19:28:18.702Z,93.40
2017-09-06T19:30:48.114Z,88.50
2017-09-06T19:33:17.612Z,86.87
2017-09-06T19:35:47.032Z,83.37
2017-09-06T19:38:16.393Z,79.60
2017-09-06T19:40:45.822Z,71.70
2017-09-06T19:43:15.126Z,73.60
2017-09-06T19:45:44.410Z,69.67
2017-09-06T19:48:14.073Z,70.83
2017-09-06T19:50:43.622Z,64.20
2017-09-06T19:53:13.205Z,68.93
2017-09-06T19:55:42.520Z,63.43
2017-09-06T19:58:12.093Z,66.20
2017-09-06T20:00:41.255Z,63.40
2017-09-06T20:03:10.467Z,69.73
2017-09-06T20:05:39.741Z,65.23
2017-09-06T20:08:09.022Z,67.73
2017-09-06T20:10:38.178Z,70.07
2017-09-06T20:13:07.575Z,66.37
2017-09-06T20:15:36.660Z,68.10
2017-09-06T20:18:06.130Z,65.60
2017-09-06T20:20:35.401Z,69.43
2017-09-06T20:23:04.558Z,68.20
2017-09-06T20:25:33.942Z,67.63
2017-09-06T20:28:03.296Z,67.97
2017-09-06T20:30:32.692Z,73.30
2017-09-06T20:33:01.962Z,76.53
2017-09-06T20:35:31.147Z,79.57
2017-09-06T20:38:00.655Z,85.70
2017-09-06T20:40:29.908Z,96.03
2017-09-06T20:42:59.265Z,99.47
2017-09-06T20:45:28.722Z,101.73
2017-09-06T20:47:58.259Z,97.10
2017-09-06T20:50:28.961Z,98.70
2017-09-06T20:52:58.281Z,100.93
2017-09-06T20:55:27.437Z,84.70
2017-09-06T20:57:56.714Z,80.70
2017-09-06T21:00:25.881Z,73.70
2017-09-06T21:02:55.288Z,72.50
2017-09-06T21:05:24.493Z,68.10
2017-09-06T21:07:53.922Z,67.33
2017-09-06T21:10:23.154Z,65.97
2017-09-06T21:12:52.708Z,64.10
2017-09-06T21:15:21.988Z,63.03
2017-09-06T21:17:51.417Z,73.63
2017-09-06T21:20:20.729Z,76.70
2017-09-06T21:22:50.346Z,75.37
2017-09-06T21:25:19.567Z,78.80
2017-09-06T21:27:48.845Z,77.77
2017-09-06T21:30:18.101Z,75.93
2017-09-06T21:32:47.539Z,84.67
2017-09-06T21:35:16.963Z,82.93
2017-09-06T21:37:46.229Z,78.63
2017-09-06T21:40:15.485Z,76.77
2017-09-06T21:42:44.747Z,83.30
2017-09-06T21:45:13.990Z,80.03
2017-09-06T21:47:43.316Z,87.00
2017-09-06T21:50:12.715Z,86.87
2017-09-06T21:52:43.369Z,84.83
2017-09-06T21:55:12.774Z,80.67
2017-09-06T21:57:41.930Z,84.13
2017-09-06T22:00:11.204Z,82.90
2017-09-06T22:02:40.401Z,88.00
2017-09-06T22:05:09.798Z,88.97
2017-09-06T22:07:39.064Z,89.70
2017-09-06T22:10:08.223Z,91.57
2017-09-06T22:12:37.602Z,90.97
2017-09-06T22:15:07.064Z,92.57
2017-09-06T22:17:36.303Z,89.27
2017-09-06T22:20:05.650Z,90.60
2017-09-06T22:22:34.946Z,94.07
2017-09-06T22:25:04.049Z,91.70
2017-09-06T22:27:33.368Z,93.10
2017-09-06T22:30:02.913Z,89.40
2017-09-06T22:32:32.316Z,86.57
2017-09-06T22:35:01.610Z,93.23
2017-09-06T22:37:30.876Z,96.90
2017-09-06T22:40:01.455Z,95.33
2017-09-06T22:42:30.778Z,95.90
2017-09-06T22:45:00.075Z,98.47
2017-09-06T22:47:29.198Z,95.03
2017-09-06T22:49:58.676Z,144.93
2017-09-06T22:52:27.894Z,160.47
2017-09-06T22:54:58.745Z,153.30
2017-09-06T22:57:28.129Z,162.10
2017-09-06T22:59:57.361Z,150.50
2017-09-06T23:02:26.792Z,162.30
2017-09-06T23:04:56.043Z,154.50
2017-09-06T23:07:25.188Z,160.53
2017-09-06T23:09:54.489Z,151.07
2017-09-06T23:12:23.828Z,144.30
2017-09-06T23:14:53.066Z,142.30
2017-09-06T23:17:22.437Z,137.83
2017-09-06T23:19:51.804Z,127.20
2017-09-06T23:22:21.153Z,137.00
2017-09-06T23:24:50.475Z,129.83
2017-09-06T23:27:19.568Z,128.87
2017-09-06T23:29:48.960Z,127.77
2017-09-06T23:32:18.220Z,123.40
2017-09-06T23:34:47.414Z,131.60
2017-09-06T23:37:16.478Z,127.60
2017-09-06T23:39:45.831Z,126.40
2017-09-06T23:42:15.133Z,125.30
2017-09-06T23:44:44.508Z,118.73
2017-09-06T23:47:13.749Z,115.70
2017-09-06T23:49:43.235Z,115.63
2017-09-06T23:52:12.493Z,119.67
2017-09-06T23:54:41.928Z,133.47
2017-09-06T23:57:13.119Z,131.80
2017-09-06T23:59:42.464Z,128.93
